sensor_id;sensor_type;location;lat;lon;timestamp;temperature;humidity
26964;DHT22;14521;48.148;-1.656;2023-04-06T00:00:24;19.20;78.00
26964;DHT22;14521;48.148;-1.656;2023-04-06T00:03:46;19.20;78.00
26964;DHT22;14521;48.148;-1.656;2023-04-06T00:07:09;19.20;77.80
26964;DHT22;14521;48.148;-1.656;2023-04-06T00:10:32;19.20;77.80
26964;DHT22;14521;48.148;-1.656;2023-04-06T00:13:54;19.20;77.80
26964;DHT22;14521;48.148;-1.656;2023-04-06T00:17:17;19.20;77.80
26964;DHT22;14521;48.148;-1.656;2023-04-06T00:20:39;19.20;77.80
26964;DHT22;14521;48.148;-1.656;2023-04-06T00:24:02;19.10;77.80
26964;DHT22;14521;48.148;-1.656;2023-04-06T00:27:25;19.20;77.80
26964;DHT22;14521;48.148;-1.656;2023-04-06T00:30:48;19.10;77.80
26964;DHT22;14521;48.148;-1.656;2023-04-06T00:34:10;19.10;77.80
26964;DHT22;14521;48.148;-1.656;2023-04-06T00:37:33;19.10;77.80
26964;DHT22;14521;48.148;-1.656;2023-04-06T00:40:55;19.10;77.80
26964;DHT22;14521;48.148;-1.656;2023-04-06T00:44:18;19.10;77.90
26964;DHT22;14521;48.148;-1.656;2023-04-06T00:47:41;19.10;77.90
26964;DHT22;14521;48.148;-1.656;2023-04-06T00:51:04;19.10;77.80
26964;DHT22;14521;48.148;-1.656;2023-04-06T00:54:29;19.10;77.80
26964;DHT22;14521;48.148;-1.656;2023-04-06T00:57:54;19.10;77.80
26964;DHT22;14521;48.148;-1.656;2023-04-06T01:01:16;19.20;78.00
26964;DHT22;14521;48.148;-1.656;2023-04-06T01:04:40;19.10;77.80
26964;DHT22;14521;48.148;-1.656;2023-04-06T01:08:09;19.10;77.90
26964;DHT22;14521;48.148;-1.656;2023-04-06T01:11:31;19.10;77.90
26964;DHT22;14521;48.148;-1.656;2023-04-06T01:14:56;19.10;77.90
26964;DHT22;14521;48.148;-1.656;2023-04-06T01:18:28;19.10;77.90
26964;DHT22;14521;48.148;-1.656;2023-04-06T01:22:06;19.10;78.00
26964;DHT22;14521;48.148;-1.656;2023-04-06T01:25:38;19.10;78.00
26964;DHT22;14521;48.148;-1.656;2023-04-06T01:29:03;19.10;78.00
26964;DHT22;14521;48.148;-1.656;2023-04-06T01:32:25;19.10;78.00
26964;DHT22;14521;48.148;-1.656;2023-04-06T01:35:48;19.10;78.00
26964;DHT22;14521;48.148;-1.656;2023-04-06T01:39:13;19.10;78.00
26964;DHT22;14521;48.148;-1.656;2023-04-06T01:42:35;19.10;78.30
26964;DHT22;14521;48.148;-1.656;2023-04-06T01:45:59;19.10;78.10
26964;DHT22;14521;48.148;-1.656;2023-04-06T01:49:26;19.10;78.10
26964;DHT22;14521;48.148;-1.656;2023-04-06T01:52:51;19.10;78.10
26964;DHT22;14521;48.148;-1.656;2023-04-06T01:56:13;19.10;78.20
26964;DHT22;14521;48.148;-1.656;2023-04-06T01:59:45;19.00;78.20
26964;DHT22;14521;48.148;-1.656;2023-04-06T02:03:15;19.00;78.20
26964;DHT22;14521;48.148;-1.656;2023-04-06T02:06:39;19.00;78.20
26964;DHT22;14521;48.148;-1.656;2023-04-06T02:10:10;19.00;78.20
26964;DHT22;14521;48.148;-1.656;2023-04-06T02:13:33;19.00;78.20
26964;DHT22;14521;48.148;-1.656;2023-04-06T02:16:55;19.00;78.20
26964;DHT22;14521;48.148;-1.656;2023-04-06T02:20:18;19.00;78.20
26964;DHT22;14521;48.148;-1.656;2023-04-06T02:23:41;19.00;78.20
26964;DHT22;14521;48.148;-1.656;2023-04-06T02:27:03;19.00;78.30
26964;DHT22;14521;48.148;-1.656;2023-04-06T02:30:26;19.00;78.20
26964;DHT22;14521;48.148;-1.656;2023-04-06T02:33:49;19.00;78.20
26964;DHT22;14521;48.148;-1.656;2023-04-06T02:37:12;19.00;79.00
26964;DHT22;14521;48.148;-1.656;2023-04-06T02:40:34;19.00;78.20
26964;DHT22;14521;48.148;-1.656;2023-04-06T02:44:08;19.00;78.20
26964;DHT22;14521;48.148;-1.656;2023-04-06T02:47:37;19.00;78.20
26964;DHT22;14521;48.148;-1.656;2023-04-06T02:50:59;19.00;78.20
26964;DHT22;14521;48.148;-1.656;2023-04-06T02:54:22;19.00;78.20
26964;DHT22;14521;48.148;-1.656;2023-04-06T02:57:45;19.00;78.20
26964;DHT22;14521;48.148;-1.656;2023-04-06T03:01:08;19.00;78.10
26964;DHT22;14521;48.148;-1.656;2023-04-06T03:04:32;19.00;78.20
26964;DHT22;14521;48.148;-1.656;2023-04-06T03:07:57;19.00;78.20
26964;DHT22;14521;48.148;-1.656;2023-04-06T03:11:32;19.00;78.20
26964;DHT22;14521;48.148;-1.656;2023-04-06T03:14:55;19.00;78.20
26964;DHT22;14521;48.148;-1.656;2023-04-06T03:18:21;19.00;78.20
26964;DHT22;14521;48.148;-1.656;2023-04-06T03:21:46;19.00;78.20
26964;DHT22;14521;48.148;-1.656;2023-04-06T03:25:10;18.90;78.10
26964;DHT22;14521;48.148;-1.656;2023-04-06T03:28:34;19.00;78.20
26964;DHT22;14521;48.148;-1.656;2023-04-06T03:32:02;18.90;78.20
26964;DHT22;14521;48.148;-1.656;2023-04-06T03:35:30;18.90;78.10
26964;DHT22;14521;48.148;-1.656;2023-04-06T03:38:52;18.90;78.00
26964;DHT22;14521;48.148;-1.656;2023-04-06T03:42:18;18.90;78.10
26964;DHT22;14521;48.148;-1.656;2023-04-06T03:45:46;18.90;78.10
26964;DHT22;14521;48.148;-1.656;2023-04-06T03:49:09;18.90;78.10
26964;DHT22;14521;48.148;-1.656;2023-04-06T03:52:32;18.90;78.10
26964;DHT22;14521;48.148;-1.656;2023-04-06T03:55:54;18.90;78.10
26964;DHT22;14521;48.148;-1.656;2023-04-06T03:59:17;18.90;78.20
26964;DHT22;14521;48.148;-1.656;2023-04-06T04:02:39;18.90;78.20
26964;DHT22;14521;48.148;-1.656;2023-04-06T04:06:02;18.90;78.20
26964;DHT22;14521;48.148;-1.656;2023-04-06T04:09:25;18.90;78.20
26964;DHT22;14521;48.148;-1.656;2023-04-06T04:12:50;18.90;78.20
26964;DHT22;14521;48.148;-1.656;2023-04-06T04:16:13;18.90;78.10
26964;DHT22;14521;48.148;-1.656;2023-04-06T04:19:36;18.90;78.10
26964;DHT22;14521;48.148;-1.656;2023-04-06T04:22:58;18.90;78.10
26964;DHT22;14521;48.148;-1.656;2023-04-06T04:26:24;18.90;78.00
26964;DHT22;14521;48.148;-1.656;2023-04-06T04:29:46;19.00;78.00
26964;DHT22;14521;48.148;-1.656;2023-04-06T04:33:09;19.00;78.30
26964;DHT22;14521;48.148;-1.656;2023-04-06T04:36:32;19.00;78.70
26964;DHT22;14521;48.148;-1.656;2023-04-06T04:39:58;19.10;79.00
26964;DHT22;14521;48.148;-1.656;2023-04-06T04:43:23;19.10;78.70
26964;DHT22;14521;48.148;-1.656;2023-04-06T04:46:45;19.10;78.70
26964;DHT22;14521;48.148;-1.656;2023-04-06T04:50:10;19.20;79.00
26964;DHT22;14521;48.148;-1.656;2023-04-06T04:53:36;19.20;79.10
26964;DHT22;14521;48.148;-1.656;2023-04-06T04:57:09;19.20;78.80
26964;DHT22;14521;48.148;-1.656;2023-04-06T05:00:36;19.30;78.90
26964;DHT22;14521;48.148;-1.656;2023-04-06T05:03:59;19.30;78.90
26964;DHT22;14521;48.148;-1.656;2023-04-06T05:07:22;19.30;79.10
26964;DHT22;14521;48.148;-1.656;2023-04-06T05:10:46;19.40;79.10
26964;DHT22;14521;48.148;-1.656;2023-04-06T05:14:10;19.40;79.10
26964;DHT22;14521;48.148;-1.656;2023-04-06T05:17:33;19.40;79.10
26964;DHT22;14521;48.148;-1.656;2023-04-06T05:20:56;19.40;79.20
26964;DHT22;14521;48.148;-1.656;2023-04-06T05:24:27;19.40;79.10
26964;DHT22;14521;48.148;-1.656;2023-04-06T05:27:50;19.50;79.10
26964;DHT22;14521;48.148;-1.656;2023-04-06T05:31:25;19.40;79.20
26964;DHT22;14521;48.148;-1.656;2023-04-06T05:34:48;19.50;79.40
26964;DHT22;14521;48.148;-1.656;2023-04-06T05:38:12;19.50;79.20
26964;DHT22;14521;48.148;-1.656;2023-04-06T05:41:34;19.50;79.30
26964;DHT22;14521;48.148;-1.656;2023-04-06T05:44:57;19.50;79.20
26964;DHT22;14521;48.148;-1.656;2023-04-06T05:48:20;19.50;79.40
26964;DHT22;14521;48.148;-1.656;2023-04-06T05:51:43;19.50;79.40
26964;DHT22;14521;48.148;-1.656;2023-04-06T05:55:05;19.50;79.30
26964;DHT22;14521;48.148;-1.656;2023-04-06T05:58:32;19.50;79.40
26964;DHT22;14521;48.148;-1.656;2023-04-06T06:01:55;19.50;79.40
26964;DHT22;14521;48.148;-1.656;2023-04-06T06:05:17;19.50;78.50
26964;DHT22;14521;48.148;-1.656;2023-04-06T06:08:41;19.60;77.70
26964;DHT22;14521;48.148;-1.656;2023-04-06T06:12:08;19.60;78.00
26964;DHT22;14521;48.148;-1.656;2023-04-06T06:15:34;19.60;77.80
26964;DHT22;14521;48.148;-1.656;2023-04-06T06:18:57;19.60;78.10
26964;DHT22;14521;48.148;-1.656;2023-04-06T06:22:19;19.60;78.50
26964;DHT22;14521;48.148;-1.656;2023-04-06T06:25:42;19.60;78.90
26964;DHT22;14521;48.148;-1.656;2023-04-06T06:29:05;19.60;80.70
26964;DHT22;14521;48.148;-1.656;2023-04-06T06:32:32;19.60;80.10
26964;DHT22;14521;48.148;-1.656;2023-04-06T06:35:55;19.60;80.50
26964;DHT22;14521;48.148;-1.656;2023-04-06T06:39:17;19.50;80.50
26964;DHT22;14521;48.148;-1.656;2023-04-06T06:42:40;19.60;80.20
26964;DHT22;14521;48.148;-1.656;2023-04-06T06:46:11;19.50;80.40
26964;DHT22;14521;48.148;-1.656;2023-04-06T06:49:35;19.50;80.00
26964;DHT22;14521;48.148;-1.656;2023-04-06T06:52:57;19.50;79.80
26964;DHT22;14521;48.148;-1.656;2023-04-06T06:56:20;19.50;80.00
26964;DHT22;14521;48.148;-1.656;2023-04-06T06:59:44;19.60;81.00
26964;DHT22;14521;48.148;-1.656;2023-04-06T07:03:07;19.50;81.00
26964;DHT22;14521;48.148;-1.656;2023-04-06T07:06:30;19.50;80.20
26964;DHT22;14521;48.148;-1.656;2023-04-06T07:09:52;19.50;81.40
26964;DHT22;14521;48.148;-1.656;2023-04-06T07:13:14;19.50;81.30
26964;DHT22;14521;48.148;-1.656;2023-04-06T07:16:43;19.50;81.20
26964;DHT22;14521;48.148;-1.656;2023-04-06T07:20:07;19.50;81.20
26964;DHT22;14521;48.148;-1.656;2023-04-06T07:23:30;19.50;81.20
26964;DHT22;14521;48.148;-1.656;2023-04-06T07:26:52;19.50;81.20
26964;DHT22;14521;48.148;-1.656;2023-04-06T07:30:15;19.40;81.10
26964;DHT22;14521;48.148;-1.656;2023-04-06T07:33:37;19.40;81.10
26964;DHT22;14521;48.148;-1.656;2023-04-06T07:37:00;19.40;80.80
26964;DHT22;14521;48.148;-1.656;2023-04-06T07:40:25;19.40;80.70
26964;DHT22;14521;48.148;-1.656;2023-04-06T07:43:50;19.30;80.80
26964;DHT22;14521;48.148;-1.656;2023-04-06T07:47:12;19.30;80.70
26964;DHT22;14521;48.148;-1.656;2023-04-06T07:50:35;19.30;80.60
26964;DHT22;14521;48.148;-1.656;2023-04-06T07:53:58;19.30;80.40
26964;DHT22;14521;48.148;-1.656;2023-04-06T07:57:20;19.30;80.60
26964;DHT22;14521;48.148;-1.656;2023-04-06T08:00:43;19.30;80.60
26964;DHT22;14521;48.148;-1.656;2023-04-06T08:04:05;19.30;80.40
26964;DHT22;14521;48.148;-1.656;2023-04-06T08:07:28;19.30;80.40
26964;DHT22;14521;48.148;-1.656;2023-04-06T08:10:50;19.30;80.60
26964;DHT22;14521;48.148;-1.656;2023-04-06T08:14:12;19.30;80.60
26964;DHT22;14521;48.148;-1.656;2023-04-06T08:17:34;19.30;81.00
26964;DHT22;14521;48.148;-1.656;2023-04-06T08:20:57;19.30;81.40
26964;DHT22;14521;48.148;-1.656;2023-04-06T08:24:19;19.20;82.60
26964;DHT22;14521;48.148;-1.656;2023-04-06T08:27:42;19.20;81.80
26964;DHT22;14521;48.148;-1.656;2023-04-06T08:31:07;19.20;81.30
26964;DHT22;14521;48.148;-1.656;2023-04-06T08:34:29;19.30;81.60
26964;DHT22;14521;48.148;-1.656;2023-04-06T08:37:52;19.30;81.90
26964;DHT22;14521;48.148;-1.656;2023-04-06T08:41:14;19.30;81.70
26964;DHT22;14521;48.148;-1.656;2023-04-06T08:44:38;19.30;82.30
26964;DHT22;14521;48.148;-1.656;2023-04-06T08:48:03;19.30;81.80
26964;DHT22;14521;48.148;-1.656;2023-04-06T08:51:29;19.20;82.20
26964;DHT22;14521;48.148;-1.656;2023-04-06T08:54:54;19.30;81.90
26964;DHT22;14521;48.148;-1.656;2023-04-06T08:58:17;19.30;81.90
26964;DHT22;14521;48.148;-1.656;2023-04-06T09:01:59;19.30;81.80
26964;DHT22;14521;48.148;-1.656;2023-04-06T09:05:24;19.30;82.40
26964;DHT22;14521;48.148;-1.656;2023-04-06T09:08:47;19.30;81.60
26964;DHT22;14521;48.148;-1.656;2023-04-06T09:12:09;19.30;81.60
26964;DHT22;14521;48.148;-1.656;2023-04-06T09:15:34;19.30;81.40
26964;DHT22;14521;48.148;-1.656;2023-04-06T09:19:04;19.30;81.40
26964;DHT22;14521;48.148;-1.656;2023-04-06T09:22:36;19.30;81.40
26964;DHT22;14521;48.148;-1.656;2023-04-06T09:26:17;19.30;82.00
26964;DHT22;14521;48.148;-1.656;2023-04-06T09:29:40;19.30;81.60
26964;DHT22;14521;48.148;-1.656;2023-04-06T09:33:02;19.30;81.80
26964;DHT22;14521;48.148;-1.656;2023-04-06T09:36:35;19.30;81.80
26964;DHT22;14521;48.148;-1.656;2023-04-06T09:40:07;19.30;81.90
26964;DHT22;14521;48.148;-1.656;2023-04-06T09:43:30;19.30;82.10
26964;DHT22;14521;48.148;-1.656;2023-04-06T09:46:53;19.20;82.10
26964;DHT22;14521;48.148;-1.656;2023-04-06T09:50:22;19.20;82.10
26964;DHT22;14521;48.148;-1.656;2023-04-06T09:53:48;19.10;82.10
26964;DHT22;14521;48.148;-1.656;2023-04-06T09:57:19;19.10;82.10
26964;DHT22;14521;48.148;-1.656;2023-04-06T10:01:00;19.20;82.00
26964;DHT22;14521;48.148;-1.656;2023-04-06T10:07:57;19.10;81.90
26964;DHT22;14521;48.148;-1.656;2023-04-06T10:11:22;19.20;82.10
26964;DHT22;14521;48.148;-1.656;2023-04-06T10:14:45;19.10;81.90
26964;DHT22;14521;48.148;-1.656;2023-04-06T10:18:08;19.20;81.90
26964;DHT22;14521;48.148;-1.656;2023-04-06T10:21:32;19.30;81.60
26964;DHT22;14521;48.148;-1.656;2023-04-06T10:24:55;19.40;81.00
26964;DHT22;14521;48.148;-1.656;2023-04-06T10:28:19;19.40;80.80
26964;DHT22;14521;48.148;-1.656;2023-04-06T10:31:42;19.40;81.00
26964;DHT22;14521;48.148;-1.656;2023-04-06T10:35:08;19.40;81.10
26964;DHT22;14521;48.148;-1.656;2023-04-06T10:38:34;19.40;81.10
26964;DHT22;14521;48.148;-1.656;2023-04-06T10:42:06;19.50;81.00
26964;DHT22;14521;48.148;-1.656;2023-04-06T10:45:31;19.50;81.00
26964;DHT22;14521;48.148;-1.656;2023-04-06T10:48:53;19.50;81.00
26964;DHT22;14521;48.148;-1.656;2023-04-06T10:52:15;19.50;81.20
26964;DHT22;14521;48.148;-1.656;2023-04-06T10:55:39;19.50;81.20
26964;DHT22;14521;48.148;-1.656;2023-04-06T10:59:03;19.50;81.30
26964;DHT22;14521;48.148;-1.656;2023-04-06T11:02:26;19.50;81.30
26964;DHT22;14521;48.148;-1.656;2023-04-06T11:05:50;19.40;81.40
26964;DHT22;14521;48.148;-1.656;2023-04-06T11:09:26;19.40;81.40
26964;DHT22;14521;48.148;-1.656;2023-04-06T11:12:56;19.40;81.60
26964;DHT22;14521;48.148;-1.656;2023-04-06T11:16:20;19.40;81.60
26964;DHT22;14521;48.148;-1.656;2023-04-06T11:19:42;19.40;81.60
26964;DHT22;14521;48.148;-1.656;2023-04-06T11:23:05;19.40;81.60
26964;DHT22;14521;48.148;-1.656;2023-04-06T11:26:28;19.40;81.40
26964;DHT22;14521;48.148;-1.656;2023-04-06T11:29:50;19.40;81.50
26964;DHT22;14521;48.148;-1.656;2023-04-06T11:33:20;19.40;81.50
26964;DHT22;14521;48.148;-1.656;2023-04-06T11:36:45;19.50;82.10
26964;DHT22;14521;48.148;-1.656;2023-04-06T11:40:09;19.50;81.20
26964;DHT22;14521;48.148;-1.656;2023-04-06T11:43:31;19.50;81.30
26964;DHT22;14521;48.148;-1.656;2023-04-06T11:46:54;19.50;81.10
26964;DHT22;14521;48.148;-1.656;2023-04-06T11:50:16;19.50;81.20
26964;DHT22;14521;48.148;-1.656;2023-04-06T11:53:45;19.50;81.30
26964;DHT22;14521;48.148;-1.656;2023-04-06T11:57:08;19.50;81.20
26964;DHT22;14521;48.148;-1.656;2023-04-06T12:00:31;19.50;81.30
26964;DHT22;14521;48.148;-1.656;2023-04-06T12:03:56;19.50;81.50
26964;DHT22;14521;48.148;-1.656;2023-04-06T12:07:19;19.40;81.30
26964;DHT22;14521;48.148;-1.656;2023-04-06T12:10:41;19.40;81.50
26964;DHT22;14521;48.148;-1.656;2023-04-06T12:14:04;19.40;81.40
26964;DHT22;14521;48.148;-1.656;2023-04-06T12:17:27;19.40;81.40
26964;DHT22;14521;48.148;-1.656;2023-04-06T12:20:49;19.40;81.50
26964;DHT22;14521;48.148;-1.656;2023-04-06T12:24:12;19.40;81.50
26964;DHT22;14521;48.148;-1.656;2023-04-06T12:27:34;19.40;81.40
26964;DHT22;14521;48.148;-1.656;2023-04-06T12:30:56;19.40;81.50
26964;DHT22;14521;48.148;-1.656;2023-04-06T12:34:19;19.40;81.40
26964;DHT22;14521;48.148;-1.656;2023-04-06T12:37:41;19.40;81.40
26964;DHT22;14521;48.148;-1.656;2023-04-06T12:41:04;19.30;81.60
26964;DHT22;14521;48.148;-1.656;2023-04-06T12:44:26;19.40;81.60
26964;DHT22;14521;48.148;-1.656;2023-04-06T12:47:48;19.40;82.30
26964;DHT22;14521;48.148;-1.656;2023-04-06T12:51:11;19.40;81.50
26964;DHT22;14521;48.148;-1.656;2023-04-06T12:54:33;19.40;81.40
26964;DHT22;14521;48.148;-1.656;2023-04-06T12:57:56;19.40;81.30
26964;DHT22;14521;48.148;-1.656;2023-04-06T13:01:18;19.40;81.10
26964;DHT22;14521;48.148;-1.656;2023-04-06T13:04:41;19.40;81.10
26964;DHT22;14521;48.148;-1.656;2023-04-06T13:08:03;19.30;81.20
26964;DHT22;14521;48.148;-1.656;2023-04-06T13:11:26;19.40;81.10
26964;DHT22;14521;48.148;-1.656;2023-04-06T13:14:49;19.40;81.20
26964;DHT22;14521;48.148;-1.656;2023-04-06T13:18:14;19.40;81.20
26964;DHT22;14521;48.148;-1.656;2023-04-06T13:21:41;19.40;81.20
26964;DHT22;14521;48.148;-1.656;2023-04-06T13:25:03;19.40;81.00
26964;DHT22;14521;48.148;-1.656;2023-04-06T13:28:26;19.40;81.20
26964;DHT22;14521;48.148;-1.656;2023-04-06T13:31:48;19.40;81.20
26964;DHT22;14521;48.148;-1.656;2023-04-06T13:35:10;19.40;81.30
26964;DHT22;14521;48.148;-1.656;2023-04-06T13:38:33;19.40;81.20
26964;DHT22;14521;48.148;-1.656;2023-04-06T13:41:56;19.40;81.20
26964;DHT22;14521;48.148;-1.656;2023-04-06T13:45:18;19.40;81.10
26964;DHT22;14521;48.148;-1.656;2023-04-06T13:48:41;19.40;81.20
26964;DHT22;14521;48.148;-1.656;2023-04-06T13:52:03;19.40;81.10
26964;DHT22;14521;48.148;-1.656;2023-04-06T13:55:26;19.40;81.10
26964;DHT22;14521;48.148;-1.656;2023-04-06T13:58:48;19.40;81.00
26964;DHT22;14521;48.148;-1.656;2023-04-06T14:02:10;19.40;81.30
26964;DHT22;14521;48.148;-1.656;2023-04-06T14:05:33;19.40;81.00
26964;DHT22;14521;48.148;-1.656;2023-04-06T14:08:56;19.40;80.90
26964;DHT22;14521;48.148;-1.656;2023-04-06T14:12:19;19.40;80.80
26964;DHT22;14521;48.148;-1.656;2023-04-06T14:15:41;19.40;80.70
26964;DHT22;14521;48.148;-1.656;2023-04-06T14:19:04;19.30;80.60
26964;DHT22;14521;48.148;-1.656;2023-04-06T14:22:26;19.30;80.70
26964;DHT22;14521;48.148;-1.656;2023-04-06T14:25:48;19.30;80.60
26964;DHT22;14521;48.148;-1.656;2023-04-06T14:29:10;19.30;80.80
26964;DHT22;14521;48.148;-1.656;2023-04-06T14:32:33;19.30;80.80
26964;DHT22;14521;48.148;-1.656;2023-04-06T14:35:55;19.30;80.80
26964;DHT22;14521;48.148;-1.656;2023-04-06T14:39:18;19.30;80.70
26964;DHT22;14521;48.148;-1.656;2023-04-06T14:42:40;19.30;80.80
26964;DHT22;14521;48.148;-1.656;2023-04-06T14:46:03;19.30;81.10
26964;DHT22;14521;48.148;-1.656;2023-04-06T14:49:25;19.30;80.90
26964;DHT22;14521;48.148;-1.656;2023-04-06T14:52:47;19.30;81.20
26964;DHT22;14521;48.148;-1.656;2023-04-06T14:56:10;19.30;81.20
26964;DHT22;14521;48.148;-1.656;2023-04-06T14:59:32;19.30;81.10
26964;DHT22;14521;48.148;-1.656;2023-04-06T15:03:00;19.30;81.20
26964;DHT22;14521;48.148;-1.656;2023-04-06T15:06:22;19.20;81.10
26964;DHT22;14521;48.148;-1.656;2023-04-06T15:09:44;19.30;81.20
26964;DHT22;14521;48.148;-1.656;2023-04-06T15:13:07;19.20;80.80
26964;DHT22;14521;48.148;-1.656;2023-04-06T15:16:29;19.20;81.10
26964;DHT22;14521;48.148;-1.656;2023-04-06T15:19:54;19.20;81.00
26964;DHT22;14521;48.148;-1.656;2023-04-06T15:23:17;19.30;80.90
26964;DHT22;14521;48.148;-1.656;2023-04-06T15:26:40;19.30;80.90
26964;DHT22;14521;48.148;-1.656;2023-04-06T15:30:03;19.30;80.80
26964;DHT22;14521;48.148;-1.656;2023-04-06T15:33:25;19.30;80.60
26964;DHT22;14521;48.148;-1.656;2023-04-06T15:36:48;19.40;80.60
26964;DHT22;14521;48.148;-1.656;2023-04-06T15:40:11;19.30;80.60
26964;DHT22;14521;48.148;-1.656;2023-04-06T15:43:35;19.30;80.60
26964;DHT22;14521;48.148;-1.656;2023-04-06T15:46:57;19.30;80.50
26964;DHT22;14521;48.148;-1.656;2023-04-06T15:50:20;19.40;80.60
26964;DHT22;14521;48.148;-1.656;2023-04-06T15:53:42;19.30;80.60
26964;DHT22;14521;48.148;-1.656;2023-04-06T15:57:06;19.30;80.60
26964;DHT22;14521;48.148;-1.656;2023-04-06T16:00:28;19.40;80.80
26964;DHT22;14521;48.148;-1.656;2023-04-06T16:03:50;19.40;80.80
26964;DHT22;14521;48.148;-1.656;2023-04-06T16:07:13;19.30;80.80
26964;DHT22;14521;48.148;-1.656;2023-04-06T16:10:35;19.40;80.80
26964;DHT22;14521;48.148;-1.656;2023-04-06T16:13:58;19.30;81.00
26964;DHT22;14521;48.148;-1.656;2023-04-06T16:17:21;19.40;81.00
26964;DHT22;14521;48.148;-1.656;2023-04-06T16:20:43;19.30;79.80
26964;DHT22;14521;48.148;-1.656;2023-04-06T16:24:06;19.40;80.50
26964;DHT22;14521;48.148;-1.656;2023-04-06T16:27:29;19.40;81.10
26964;DHT22;14521;48.148;-1.656;2023-04-06T16:30:52;19.30;81.60
26964;DHT22;14521;48.148;-1.656;2023-04-06T16:34:14;19.30;81.70
26964;DHT22;14521;48.148;-1.656;2023-04-06T16:37:36;19.30;81.90
26964;DHT22;14521;48.148;-1.656;2023-04-06T16:41:00;19.30;81.70
26964;DHT22;14521;48.148;-1.656;2023-04-06T16:44:25;19.30;81.50
26964;DHT22;14521;48.148;-1.656;2023-04-06T16:47:48;19.30;81.40
26964;DHT22;14521;48.148;-1.656;2023-04-06T16:51:11;19.30;81.40
26964;DHT22;14521;48.148;-1.656;2023-04-06T16:54:34;19.30;80.50
26964;DHT22;14521;48.148;-1.656;2023-04-06T16:57:56;19.30;81.20
26964;DHT22;14521;48.148;-1.656;2023-04-06T17:01:24;19.40;81.00
26964;DHT22;14521;48.148;-1.656;2023-04-06T17:04:47;19.40;81.50
26964;DHT22;14521;48.148;-1.656;2023-04-06T17:08:09;19.40;80.80
26964;DHT22;14521;48.148;-1.656;2023-04-06T17:11:32;19.40;79.70
26964;DHT22;14521;48.148;-1.656;2023-04-06T17:15:07;19.50;79.50
26964;DHT22;14521;48.148;-1.656;2023-04-06T17:18:29;19.50;80.20
26964;DHT22;14521;48.148;-1.656;2023-04-06T17:21:52;19.50;81.20
26964;DHT22;14521;48.148;-1.656;2023-04-06T17:25:15;19.60;80.80
26964;DHT22;14521;48.148;-1.656;2023-04-06T17:28:37;19.60;80.00
26964;DHT22;14521;48.148;-1.656;2023-04-06T17:31:59;19.60;80.20
26964;DHT22;14521;48.148;-1.656;2023-04-06T17:35:22;19.60;80.70
26964;DHT22;14521;48.148;-1.656;2023-04-06T17:38:45;19.60;80.70
26964;DHT22;14521;48.148;-1.656;2023-04-06T17:42:07;19.60;81.20
26964;DHT22;14521;48.148;-1.656;2023-04-06T17:45:30;19.60;81.50
26964;DHT22;14521;48.148;-1.656;2023-04-06T17:48:52;19.60;81.90
26964;DHT22;14521;48.148;-1.656;2023-04-06T17:52:15;19.60;81.90
26964;DHT22;14521;48.148;-1.656;2023-04-06T17:55:37;19.60;82.00
26964;DHT22;14521;48.148;-1.656;2023-04-06T17:58:59;19.60;82.30
26964;DHT22;14521;48.148;-1.656;2023-04-06T18:02:22;19.60;82.50
26964;DHT22;14521;48.148;-1.656;2023-04-06T18:05:45;19.60;82.50
26964;DHT22;14521;48.148;-1.656;2023-04-06T18:09:07;19.60;82.50
26964;DHT22;14521;48.148;-1.656;2023-04-06T18:12:30;19.60;82.50
26964;DHT22;14521;48.148;-1.656;2023-04-06T18:15:53;19.60;82.30
26964;DHT22;14521;48.148;-1.656;2023-04-06T18:19:15;19.60;83.10
26964;DHT22;14521;48.148;-1.656;2023-04-06T18:22:37;19.70;83.90
26964;DHT22;14521;48.148;-1.656;2023-04-06T18:26:00;19.60;81.40
26964;DHT22;14521;48.148;-1.656;2023-04-06T18:29:23;19.40;82.70
26964;DHT22;14521;48.148;-1.656;2023-04-06T18:32:45;19.50;84.80
26964;DHT22;14521;48.148;-1.656;2023-04-06T18:36:07;19.60;83.90
26964;DHT22;14521;48.148;-1.656;2023-04-06T18:39:31;19.60;84.10
26964;DHT22;14521;48.148;-1.656;2023-04-06T18:42:53;19.70;84.70
26964;DHT22;14521;48.148;-1.656;2023-04-06T18:46:16;19.70;83.90
26964;DHT22;14521;48.148;-1.656;2023-04-06T18:49:40;19.70;84.60
26964;DHT22;14521;48.148;-1.656;2023-04-06T18:53:03;19.70;82.30
26964;DHT22;14521;48.148;-1.656;2023-04-06T18:56:25;19.70;82.10
26964;DHT22;14521;48.148;-1.656;2023-04-06T18:59:47;19.70;81.90
26964;DHT22;14521;48.148;-1.656;2023-04-06T19:03:09;19.60;81.30
26964;DHT22;14521;48.148;-1.656;2023-04-06T19:06:32;19.40;81.60
26964;DHT22;14521;48.148;-1.656;2023-04-06T19:09:55;19.30;82.20
26964;DHT22;14521;48.148;-1.656;2023-04-06T19:13:17;19.30;82.40
26964;DHT22;14521;48.148;-1.656;2023-04-06T19:16:41;19.20;82.30
26964;DHT22;14521;48.148;-1.656;2023-04-06T19:20:05;19.30;82.50
26964;DHT22;14521;48.148;-1.656;2023-04-06T19:23:28;19.30;83.70
26964;DHT22;14521;48.148;-1.656;2023-04-06T19:26:50;19.50;83.80
26964;DHT22;14521;48.148;-1.656;2023-04-06T19:30:13;19.50;82.00
26964;DHT22;14521;48.148;-1.656;2023-04-06T19:33:36;19.60;81.50
26964;DHT22;14521;48.148;-1.656;2023-04-06T19:36:59;19.50;81.50
26964;DHT22;14521;48.148;-1.656;2023-04-06T19:40:21;19.60;81.40
26964;DHT22;14521;48.148;-1.656;2023-04-06T19:43:43;19.60;81.50
26964;DHT22;14521;48.148;-1.656;2023-04-06T19:47:06;19.60;81.50
26964;DHT22;14521;48.148;-1.656;2023-04-06T19:50:28;19.60;81.00
26964;DHT22;14521;48.148;-1.656;2023-04-06T19:53:50;19.60;80.90
26964;DHT22;14521;48.148;-1.656;2023-04-06T19:57:13;19.60;81.40
26964;DHT22;14521;48.148;-1.656;2023-04-06T20:00:35;19.60;81.00
26964;DHT22;14521;48.148;-1.656;2023-04-06T20:03:58;19.60;80.90
26964;DHT22;14521;48.148;-1.656;2023-04-06T20:07:20;19.60;80.80
26964;DHT22;14521;48.148;-1.656;2023-04-06T20:10:42;19.60;80.70
26964;DHT22;14521;48.148;-1.656;2023-04-06T20:14:05;19.60;81.30
26964;DHT22;14521;48.148;-1.656;2023-04-06T20:17:28;19.60;82.40
26964;DHT22;14521;48.148;-1.656;2023-04-06T20:20:50;19.60;81.40
26964;DHT22;14521;48.148;-1.656;2023-04-06T20:24:13;19.60;83.50
26964;DHT22;14521;48.148;-1.656;2023-04-06T20:27:36;19.60;84.00
26964;DHT22;14521;48.148;-1.656;2023-04-06T20:30:58;19.60;83.70
26964;DHT22;14521;48.148;-1.656;2023-04-06T20:34:21;19.60;83.30
26964;DHT22;14521;48.148;-1.656;2023-04-06T20:37:46;19.50;83.80
26964;DHT22;14521;48.148;-1.656;2023-04-06T20:41:09;19.50;83.50
26964;DHT22;14521;48.148;-1.656;2023-04-06T20:44:31;19.50;83.80
26964;DHT22;14521;48.148;-1.656;2023-04-06T20:47:53;19.50;83.50
26964;DHT22;14521;48.148;-1.656;2023-04-06T20:51:18;19.50;83.60
26964;DHT22;14521;48.148;-1.656;2023-04-06T20:54:40;19.50;84.10
26964;DHT22;14521;48.148;-1.656;2023-04-06T20:58:02;19.50;83.50
26964;DHT22;14521;48.148;-1.656;2023-04-06T21:01:25;19.50;83.80
26964;DHT22;14521;48.148;-1.656;2023-04-06T21:04:48;19.50;83.00
26964;DHT22;14521;48.148;-1.656;2023-04-06T21:08:10;19.40;83.20